sensor_id;sensor_type;location;lat;lon;timestamp;P1;durP1;ratioP1;P2;durP2;ratioP2
38312;SDS011;24114;52.260;6.714;2024-03-25T00:00:22;14.93;;;2.67;;
38312;SDS011;24114;52.260;6.714;2024-03-25T00:02:50;12.25;;;2.33;;
38312;SDS011;24114;52.260;6.714;2024-03-25T00:05:18;11.52;;;2.20;;
38312;SDS011;24114;52.260;6.714;2024-03-25T00:07:48;12.02;;;2.15;;
38312;SDS011;24114;52.260;6.714;2024-03-25T00:10:14;12.98;;;2.00;;
38312;SDS011;24114;52.260;6.714;2024-03-25T00:12:41;13.05;;;2.17;;
38312;SDS011;24114;52.260;6.714;2024-03-25T00:15:07;11.50;;;1.80;;
38312;SDS011;24114;52.260;6.714;2024-03-25T00:17:34;13.95;;;2.20;;
38312;SDS011;24114;52.260;6.714;2024-03-25T00:20:01;9.93;;;2.05;;
38312;SDS011;24114;52.260;6.714;2024-03-25T00:22:35;14.63;;;2.30;;
38312;SDS011;24114;52.260;6.714;2024-03-25T00:25:00;11.23;;;1.73;;
38312;SDS011;24114;52.260;6.714;2024-03-25T00:27:27;14.15;;;2.15;;
38312;SDS011;24114;52.260;6.714;2024-03-25T00:29:54;12.37;;;1.53;;
38312;SDS011;24114;52.260;6.714;2024-03-25T00:32:21;8.68;;;1.83;;
38312;SDS011;24114;52.260;6.714;2024-03-25T00:34:47;11.75;;;2.22;;
38312;SDS011;24114;52.260;6.714;2024-03-25T00:37:14;10.50;;;1.80;;
38312;SDS011;24114;52.260;6.714;2024-03-25T00:39:41;12.87;;;2.00;;
38312;SDS011;24114;52.260;6.714;2024-03-25T00:42:08;11.48;;;1.77;;
38312;SDS011;24114;52.260;6.714;2024-03-25T00:44:34;14.27;;;2.63;;
38312;SDS011;24114;52.260;6.714;2024-03-25T00:47:01;12.27;;;2.15;;
38312;SDS011;24114;52.260;6.714;2024-03-25T00:49:27;9.10;;;2.10;;
38312;SDS011;24114;52.260;6.714;2024-03-25T00:51:54;10.47;;;2.00;;
38312;SDS011;24114;52.260;6.714;2024-03-25T00:54:20;11.50;;;1.60;;
38312;SDS011;24114;52.260;6.714;2024-03-25T00:56:50;12.18;;;1.85;;
38312;SDS011;24114;52.260;6.714;2024-03-25T00:59:16;10.32;;;1.50;;
38312;SDS011;24114;52.260;6.714;2024-03-25T01:01:43;10.57;;;1.70;;
38312;SDS011;24114;52.260;6.714;2024-03-25T01:04:09;8.98;;;1.63;;
38312;SDS011;24114;52.260;6.714;2024-03-25T01:06:36;12.97;;;2.10;;
38312;SDS011;24114;52.260;6.714;2024-03-25T01:09:02;11.00;;;2.20;;
38312;SDS011;24114;52.260;6.714;2024-03-25T01:11:29;10.52;;;1.73;;
38312;SDS011;24114;52.260;6.714;2024-03-25T01:13:57;8.95;;;2.20;;
38312;SDS011;24114;52.260;6.714;2024-03-25T01:16:24;12.10;;;1.98;;
38312;SDS011;24114;52.260;6.714;2024-03-25T01:18:50;11.57;;;2.10;;
38312;SDS011;24114;52.260;6.714;2024-03-25T01:21:16;9.70;;;1.63;;
38312;SDS011;24114;52.260;6.714;2024-03-25T01:23:42;12.27;;;1.70;;
38312;SDS011;24114;52.260;6.714;2024-03-25T01:26:09;9.93;;;1.75;;
38312;SDS011;24114;52.260;6.714;2024-03-25T01:28:35;10.80;;;1.90;;
38312;SDS011;24114;52.260;6.714;2024-03-25T01:31:04;9.60;;;1.88;;
38312;SDS011;24114;52.260;6.714;2024-03-25T01:33:30;10.57;;;1.90;;
38312;SDS011;24114;52.260;6.714;2024-03-25T01:35:59;9.57;;;2.03;;
38312;SDS011;24114;52.260;6.714;2024-03-25T01:38:25;9.25;;;1.50;;
38312;SDS011;24114;52.260;6.714;2024-03-25T01:40:52;11.70;;;2.13;;
38312;SDS011;24114;52.260;6.714;2024-03-25T01:43:18;10.90;;;1.93;;
38312;SDS011;24114;52.260;6.714;2024-03-25T01:45:44;11.48;;;1.88;;
38312;SDS011;24114;52.260;6.714;2024-03-25T01:48:12;11.00;;;1.83;;
38312;SDS011;24114;52.260;6.714;2024-03-25T01:50:40;14.27;;;2.20;;
38312;SDS011;24114;52.260;6.714;2024-03-25T01:53:07;10.38;;;1.70;;
38312;SDS011;24114;52.260;6.714;2024-03-25T01:55:35;11.68;;;1.92;;
38312;SDS011;24114;52.260;6.714;2024-03-25T01:58:01;11.05;;;1.73;;
38312;SDS011;24114;52.260;6.714;2024-03-25T02:00:28;11.65;;;1.65;;
38312;SDS011;24114;52.260;6.714;2024-03-25T02:02:54;9.82;;;1.33;;
38312;SDS011;24114;52.260;6.714;2024-03-25T02:05:23;9.55;;;1.70;;
38312;SDS011;24114;52.260;6.714;2024-03-25T02:07:49;10.60;;;1.23;;
38312;SDS011;24114;52.260;6.714;2024-03-25T02:10:16;9.30;;;1.40;;
38312;SDS011;24114;52.260;6.714;2024-03-25T02:12:42;11.18;;;1.40;;
38312;SDS011;24114;52.260;6.714;2024-03-25T02:15:09;8.52;;;2.22;;
38312;SDS011;24114;52.260;6.714;2024-03-25T02:17:35;14.93;;;2.00;;
38312;SDS011;24114;52.260;6.714;2024-03-25T02:20:02;13.13;;;2.03;;
38312;SDS011;24114;52.260;6.714;2024-03-25T02:22:29;11.73;;;1.77;;
38312;SDS011;24114;52.260;6.714;2024-03-25T02:24:56;10.97;;;1.87;;
38312;SDS011;24114;52.260;6.714;2024-03-25T02:27:24;13.77;;;2.40;;
38312;SDS011;24114;52.260;6.714;2024-03-25T02:29:51;11.63;;;2.05;;
38312;SDS011;24114;52.260;6.714;2024-03-25T02:32:17;10.38;;;1.98;;
38312;SDS011;24114;52.260;6.714;2024-03-25T02:34:44;11.27;;;2.30;;
38312;SDS011;24114;52.260;6.714;2024-03-25T02:37:11;13.35;;;1.95;;
38312;SDS011;24114;52.260;6.714;2024-03-25T02:39:38;8.98;;;1.88;;
38312;SDS011;24114;52.260;6.714;2024-03-25T02:42:04;13.15;;;2.45;;
38312;SDS011;24114;52.260;6.714;2024-03-25T02:44:33;12.05;;;2.40;;
38312;SDS011;24114;52.260;6.714;2024-03-25T02:46:58;13.35;;;2.20;;
38312;SDS011;24114;52.260;6.714;2024-03-25T02:49:26;15.82;;;2.63;;
38312;SDS011;24114;52.260;6.714;2024-03-25T02:51:51;11.13;;;2.20;;
38312;SDS011;24114;52.260;6.714;2024-03-25T02:54:18;13.13;;;2.45;;
38312;SDS011;24114;52.260;6.714;2024-03-25T02:56:44;13.02;;;2.40;;
38312;SDS011;24114;52.260;6.714;2024-03-25T02:59:11;14.25;;;2.60;;
38312;SDS011;24114;52.260;6.714;2024-03-25T03:01:38;13.20;;;2.45;;
38312;SDS011;24114;52.260;6.714;2024-03-25T03:04:05;13.00;;;2.42;;
38312;SDS011;24114;52.260;6.714;2024-03-25T03:06:31;11.93;;;2.57;;
38312;SDS011;24114;52.260;6.714;2024-03-25T03:08:57;16.17;;;2.67;;
38312;SDS011;24114;52.260;6.714;2024-03-25T03:11:23;16.20;;;2.47;;
38312;SDS011;24114;52.260;6.714;2024-03-25T03:13:50;13.97;;;2.97;;
38312;SDS011;24114;52.260;6.714;2024-03-25T03:16:16;16.05;;;2.85;;
38312;SDS011;24114;52.260;6.714;2024-03-25T03:18:44;17.00;;;3.10;;
38312;SDS011;24114;52.260;6.714;2024-03-25T03:21:10;16.70;;;3.80;;
38312;SDS011;24114;52.260;6.714;2024-03-25T03:23:37;16.43;;;3.77;;
38312;SDS011;24114;52.260;6.714;2024-03-25T03:26:02;16.27;;;3.13;;
38312;SDS011;24114;52.260;6.714;2024-03-25T03:28:29;13.95;;;2.78;;
38312;SDS011;24114;52.260;6.714;2024-03-25T03:30:55;16.20;;;3.22;;
38312;SDS011;24114;52.260;6.714;2024-03-25T03:33:22;16.03;;;3.37;;
38312;SDS011;24114;52.260;6.714;2024-03-25T03:35:49;13.60;;;2.97;;
38312;SDS011;24114;52.260;6.714;2024-03-25T03:38:16;16.67;;;3.15;;
38312;SDS011;24114;52.260;6.714;2024-03-25T03:40:42;18.77;;;3.75;;
38312;SDS011;24114;52.260;6.714;2024-03-25T03:43:09;14.23;;;3.80;;
38312;SDS011;24114;52.260;6.714;2024-03-25T03:45:34;16.27;;;3.13;;
38312;SDS011;24114;52.260;6.714;2024-03-25T03:48:01;14.55;;;2.97;;
38312;SDS011;24114;52.260;6.714;2024-03-25T03:50:27;14.70;;;3.25;;
38312;SDS011;24114;52.260;6.714;2024-03-25T03:52:55;13.13;;;3.03;;
38312;SDS011;24114;52.260;6.714;2024-03-25T03:55:21;13.85;;;3.22;;
38312;SDS011;24114;52.260;6.714;2024-03-25T03:57:48;16.25;;;3.63;;
38312;SDS011;24114;52.260;6.714;2024-03-25T04:00:14;17.13;;;3.22;;
38312;SDS011;24114;52.260;6.714;2024-03-25T04:02:42;19.85;;;3.83;;
38312;SDS011;24114;52.260;6.714;2024-03-25T04:05:08;15.40;;;3.53;;
38312;SDS011;24114;52.260;6.714;2024-03-25T04:07:35;17.73;;;3.65;;
38312;SDS011;24114;52.260;6.714;2024-03-25T04:10:02;22.55;;;4.00;;
38312;SDS011;24114;52.260;6.714;2024-03-25T04:12:29;13.67;;;3.37;;
38312;SDS011;24114;52.260;6.714;2024-03-25T04:14:55;16.60;;;3.45;;
38312;SDS011;24114;52.260;6.714;2024-03-25T04:17:22;12.88;;;3.00;;
38312;SDS011;24114;52.260;6.714;2024-03-25T04:19:49;17.23;;;3.07;;
38312;SDS011;24114;52.260;6.714;2024-03-25T04:22:16;16.83;;;2.75;;
38312;SDS011;24114;52.260;6.714;2024-03-25T04:24:42;14.97;;;2.73;;
38312;SDS011;24114;52.260;6.714;2024-03-25T04:27:11;13.50;;;3.00;;
38312;SDS011;24114;52.260;6.714;2024-03-25T04:29:36;16.45;;;2.80;;
38312;SDS011;24114;52.260;6.714;2024-03-25T04:32:03;13.43;;;2.70;;
38312;SDS011;24114;52.260;6.714;2024-03-25T04:34:29;12.63;;;2.35;;
38312;SDS011;24114;52.260;6.714;2024-03-25T04:36:56;16.65;;;2.83;;
38312;SDS011;24114;52.260;6.714;2024-03-25T04:39:22;15.60;;;2.95;;
38312;SDS011;24114;52.260;6.714;2024-03-25T04:41:48;17.80;;;3.40;;
38312;SDS011;24114;52.260;6.714;2024-03-25T04:44:15;12.33;;;2.30;;
38312;SDS011;24114;52.260;6.714;2024-03-25T04:46:41;14.23;;;2.53;;
38312;SDS011;24114;52.260;6.714;2024-03-25T04:49:07;13.00;;;2.73;;
38312;SDS011;24114;52.260;6.714;2024-03-25T04:51:33;12.30;;;2.63;;
38312;SDS011;24114;52.260;6.714;2024-03-25T04:53:59;16.15;;;2.97;;
38312;SDS011;24114;52.260;6.714;2024-03-25T04:56:25;13.60;;;2.20;;
38312;SDS011;24114;52.260;6.714;2024-03-25T04:58:50;11.23;;;2.53;;
38312;SDS011;24114;52.260;6.714;2024-03-25T05:01:18;12.83;;;2.00;;
38312;SDS011;24114;52.260;6.714;2024-03-25T05:03:44;12.35;;;2.42;;
38312;SDS011;24114;52.260;6.714;2024-03-25T05:06:09;11.70;;;2.60;;
38312;SDS011;24114;52.260;6.714;2024-03-25T05:08:35;13.02;;;2.72;;
38312;SDS011;24114;52.260;6.714;2024-03-25T05:11:01;11.50;;;2.35;;
38312;SDS011;24114;52.260;6.714;2024-03-25T05:13:27;12.07;;;2.17;;
38312;SDS011;24114;52.260;6.714;2024-03-25T05:15:53;11.25;;;2.28;;
38312;SDS011;24114;52.260;6.714;2024-03-25T05:18:20;11.57;;;2.20;;
38312;SDS011;24114;52.260;6.714;2024-03-25T05:20:46;13.73;;;2.88;;
38312;SDS011;24114;52.260;6.714;2024-03-25T05:23:12;11.27;;;2.40;;
38312;SDS011;24114;52.260;6.714;2024-03-25T05:25:38;14.27;;;2.55;;
38312;SDS011;24114;52.260;6.714;2024-03-25T05:28:04;13.15;;;2.17;;
38312;SDS011;24114;52.260;6.714;2024-03-25T05:30:30;15.38;;;2.83;;
38312;SDS011;24114;52.260;6.714;2024-03-25T05:32:56;16.23;;;2.95;;
38312;SDS011;24114;52.260;6.714;2024-03-25T05:35:23;13.05;;;2.63;;
38312;SDS011;24114;52.260;6.714;2024-03-25T05:37:49;12.32;;;2.67;;
38312;SDS011;24114;52.260;6.714;2024-03-25T05:40:15;11.65;;;2.42;;
38312;SDS011;24114;52.260;6.714;2024-03-25T05:42:44;13.75;;;2.80;;
38312;SDS011;24114;52.260;6.714;2024-03-25T05:45:10;13.50;;;2.53;;
38312;SDS011;24114;52.260;6.714;2024-03-25T05:47:36;11.63;;;2.67;;
38312;SDS011;24114;52.260;6.714;2024-03-25T05:50:02;15.88;;;3.35;;
38312;SDS011;24114;52.260;6.714;2024-03-25T05:52:29;15.63;;;2.30;;
38312;SDS011;24114;52.260;6.714;2024-03-25T05:54:55;14.13;;;2.45;;
38312;SDS011;24114;52.260;6.714;2024-03-25T05:57:21;16.73;;;2.30;;
38312;SDS011;24114;52.260;6.714;2024-03-25T05:59:47;9.93;;;2.30;;
38312;SDS011;24114;52.260;6.714;2024-03-25T06:02:13;15.55;;;2.83;;
38312;SDS011;24114;52.260;6.714;2024-03-25T06:04:39;11.80;;;1.63;;
38312;SDS011;24114;52.260;6.714;2024-03-25T06:07:05;12.73;;;2.42;;
38312;SDS011;24114;52.260;6.714;2024-03-25T06:09:32;10.93;;;2.17;;
38312;SDS011;24114;52.260;6.714;2024-03-25T06:11:58;12.27;;;2.53;;
38312;SDS011;24114;52.260;6.714;2024-03-25T06:14:24;12.10;;;2.27;;
38312;SDS011;24114;52.260;6.714;2024-03-25T06:16:50;12.85;;;2.60;;
38312;SDS011;24114;52.260;6.714;2024-03-25T06:19:15;11.13;;;2.50;;
38312;SDS011;24114;52.260;6.714;2024-03-25T06:21:41;12.23;;;2.53;;
38312;SDS011;24114;52.260;6.714;2024-03-25T06:24:07;13.73;;;2.80;;
38312;SDS011;24114;52.260;6.714;2024-03-25T06:26:35;12.43;;;2.65;;
38312;SDS011;24114;52.260;6.714;2024-03-25T06:29:01;11.88;;;2.33;;
38312;SDS011;24114;52.260;6.714;2024-03-25T06:31:27;11.98;;;2.33;;
38312;SDS011;24114;52.260;6.714;2024-03-25T06:34:13;15.00;;;2.92;;
38312;SDS011;24114;52.260;6.714;2024-03-25T06:36:39;12.07;;;2.58;;
38312;SDS011;24114;52.260;6.714;2024-03-25T06:39:05;16.60;;;3.22;;
38312;SDS011;24114;52.260;6.714;2024-03-25T06:41:31;14.77;;;2.80;;
38312;SDS011;24114;52.260;6.714;2024-03-25T06:43:58;12.18;;;2.80;;
38312;SDS011;24114;52.260;6.714;2024-03-25T06:46:24;15.50;;;2.67;;
38312;SDS011;24114;52.260;6.714;2024-03-25T06:48:50;13.27;;;2.53;;
38312;SDS011;24114;52.260;6.714;2024-03-25T06:51:16;12.17;;;2.43;;
38312;SDS011;24114;52.260;6.714;2024-03-25T06:53:42;14.93;;;2.83;;
38312;SDS011;24114;52.260;6.714;2024-03-25T06:56:08;9.60;;;1.85;;
38312;SDS011;24114;52.260;6.714;2024-03-25T06:58:34;12.07;;;2.28;;
38312;SDS011;24114;52.260;6.714;2024-03-25T07:01:05;14.52;;;2.30;;
38312;SDS011;24114;52.260;6.714;2024-03-25T07:03:31;16.13;;;2.50;;
38312;SDS011;24114;52.260;6.714;2024-03-25T07:05:57;16.58;;;2.90;;
38312;SDS011;24114;52.260;6.714;2024-03-25T07:08:23;14.10;;;2.42;;
38312;SDS011;24114;52.260;6.714;2024-03-25T07:10:49;13.68;;;2.60;;
38312;SDS011;24114;52.260;6.714;2024-03-25T07:13:15;11.55;;;2.83;;
38312;SDS011;24114;52.260;6.714;2024-03-25T07:15:42;13.83;;;3.07;;
38312;SDS011;24114;52.260;6.714;2024-03-25T07:18:10;13.47;;;2.53;;
38312;SDS011;24114;52.260;6.714;2024-03-25T07:20:36;15.60;;;3.05;;
38312;SDS011;24114;52.260;6.714;2024-03-25T07:23:02;11.55;;;2.95;;
38312;SDS011;24114;52.260;6.714;2024-03-25T07:25:29;14.77;;;2.45;;
38312;SDS011;24114;52.260;6.714;2024-03-25T07:27:55;14.27;;;2.55;;
38312;SDS011;24114;52.260;6.714;2024-03-25T07:30:21;12.17;;;2.00;;
38312;SDS011;24114;52.260;6.714;2024-03-25T07:32:47;14.13;;;3.00;;
38312;SDS011;24114;52.260;6.714;2024-03-25T07:35:14;13.23;;;2.10;;
38312;SDS011;24114;52.260;6.714;2024-03-25T07:37:41;11.77;;;2.45;;
38312;SDS011;24114;52.260;6.714;2024-03-25T07:40:07;12.55;;;2.55;;
38312;SDS011;24114;52.260;6.714;2024-03-25T07:42:34;15.30;;;2.73;;
38312;SDS011;24114;52.260;6.714;2024-03-25T07:45:00;13.93;;;2.85;;
38312;SDS011;24114;52.260;6.714;2024-03-25T07:47:26;15.15;;;3.45;;
38312;SDS011;24114;52.260;6.714;2024-03-25T07:49:52;11.80;;;2.92;;
38312;SDS011;24114;52.260;6.714;2024-03-25T07:52:19;11.40;;;2.42;;
38312;SDS011;24114;52.260;6.714;2024-03-25T07:54:45;13.38;;;2.67;;
38312;SDS011;24114;52.260;6.714;2024-03-25T07:57:11;12.55;;;2.50;;
38312;SDS011;24114;52.260;6.714;2024-03-25T07:59:37;11.77;;;2.88;;
38312;SDS011;24114;52.260;6.714;2024-03-25T08:02:03;12.07;;;2.60;;
38312;SDS011;24114;52.260;6.714;2024-03-25T08:04:29;13.83;;;2.63;;
38312;SDS011;24114;52.260;6.714;2024-03-25T08:06:55;12.00;;;3.20;;
38312;SDS011;24114;52.260;6.714;2024-03-25T08:09:22;13.57;;;2.65;;
38312;SDS011;24114;52.260;6.714;2024-03-25T08:11:48;16.63;;;3.50;;
38312;SDS011;24114;52.260;6.714;2024-03-25T08:14:14;13.27;;;3.28;;
38312;SDS011;24114;52.260;6.714;2024-03-25T08:16:40;13.05;;;2.70;;
38312;SDS011;24114;52.260;6.714;2024-03-25T08:19:06;12.83;;;2.90;;
38312;SDS011;24114;52.260;6.714;2024-03-25T08:21:32;11.63;;;2.47;;
38312;SDS011;24114;52.260;6.714;2024-03-25T08:23:57;15.38;;;3.80;;
38312;SDS011;24114;52.260;6.714;2024-03-25T08:26:25;14.45;;;3.63;;
38312;SDS011;24114;52.260;6.714;2024-03-25T08:28:51;10.82;;;3.20;;
38312;SDS011;24114;52.260;6.714;2024-03-25T08:31:17;8.70;;;3.15;;
38312;SDS011;24114;52.260;6.714;2024-03-25T08:33:42;13.07;;;3.23;;
38312;SDS011;24114;52.260;6.714;2024-03-25T08:36:08;10.80;;;2.97;;
38312;SDS011;24114;52.260;6.714;2024-03-25T08:38:34;10.13;;;2.42;;
38312;SDS011;24114;52.260;6.714;2024-03-25T08:41:00;13.60;;;2.92;;
38312;SDS011;24114;52.260;6.714;2024-03-25T08:43:28;13.73;;;2.80;;
38312;SDS011;24114;52.260;6.714;2024-03-25T08:45:53;11.73;;;3.45;;
38312;SDS011;24114;52.260;6.714;2024-03-25T08:48:19;12.27;;;3.07;;
38312;SDS011;24114;52.260;6.714;2024-03-25T08:50:45;12.38;;;3.42;;
38312;SDS011;24114;52.260;6.714;2024-03-25T08:53:11;11.68;;;2.75;;
38312;SDS011;24114;52.260;6.714;2024-03-25T08:55:37;11.50;;;2.90;;
38312;SDS011;24114;52.260;6.714;2024-03-25T08:58:03;14.23;;;3.17;;
38312;SDS011;24114;52.260;6.714;2024-03-25T09:00:30;11.23;;;2.67;;
38312;SDS011;24114;52.260;6.714;2024-03-25T09:02:56;13.85;;;2.42;;
38312;SDS011;24114;52.260;6.714;2024-03-25T09:05:22;10.17;;;2.37;;
38312;SDS011;24114;52.260;6.714;2024-03-25T09:07:49;9.73;;;2.33;;
38312;SDS011;24114;52.260;6.714;2024-03-25T09:10:15;9.15;;;2.08;;
38312;SDS011;24114;52.260;6.714;2024-03-25T09:13:00;10.07;;;1.97;;
38312;SDS011;24114;52.260;6.714;2024-03-25T09:15:26;9.13;;;2.28;;
38312;SDS011;24114;52.260;6.714;2024-03-25T09:17:53;9.02;;;2.30;;
38312;SDS011;24114;52.260;6.714;2024-03-25T09:20:19;11.75;;;2.17;;
38312;SDS011;24114;52.260;6.714;2024-03-25T09:22:45;11.35;;;2.20;;
38312;SDS011;24114;52.260;6.714;2024-03-25T09:25:11;11.15;;;2.13;;
38312;SDS011;24114;52.260;6.714;2024-03-25T09:27:37;10.07;;;2.20;;
38312;SDS011;24114;52.260;6.714;2024-03-25T09:30:03;7.50;;;1.70;;
38312;SDS011;24114;52.260;6.714;2024-03-25T09:32:29;9.15;;;1.90;;
38312;SDS011;24114;52.260;6.714;2024-03-25T09:34:57;9.70;;;1.55;;
38312;SDS011;24114;52.260;6.714;2024-03-25T09:37:23;6.68;;;0.80;;
38312;SDS011;24114;52.260;6.714;2024-03-25T09:39:49;9.60;;;1.23;;
38312;SDS011;24114;52.260;6.714;2024-03-25T09:42:15;7.78;;;1.40;;
38312;SDS011;24114;52.260;6.714;2024-03-25T09:44:46;6.23;;;0.60;;
38312;SDS011;24114;52.260;6.714;2024-03-25T09:47:12;6.97;;;1.10;;
38312;SDS011;24114;52.260;6.714;2024-03-25T09:49:38;6.65;;;1.10;;
38312;SDS011;24114;52.260;6.714;2024-03-25T09:52:07;9.07;;;1.08;;
38312;SDS011;24114;52.260;6.714;2024-03-25T09:54:33;5.50;;;0.70;;
38312;SDS011;24114;52.260;6.714;2024-03-25T09:56:59;5.70;;;0.77;;
38312;SDS011;24114;52.260;6.714;2024-03-25T09:59:26;5.25;;;0.50;;
38312;SDS011;24114;52.260;6.714;2024-03-25T10:01:52;5.03;;;0.52;;
38312;SDS011;24114;52.260;6.714;2024-03-25T10:04:19;4.72;;;0.60;;
38312;SDS011;24114;52.260;6.714;2024-03-25T10:06:45;6.40;;;0.73;;
38312;SDS011;24114;52.260;6.714;2024-03-25T10:09:12;4.82;;;0.70;;
38312;SDS011;24114;52.260;6.714;2024-03-25T10:11:38;6.22;;;0.60;;
38312;SDS011;24114;52.260;6.714;2024-03-25T10:14:04;5.95;;;1.00;;
38312;SDS011;24114;52.260;6.714;2024-03-25T10:16:30;4.30;;;0.60;;
38312;SDS011;24114;52.260;6.714;2024-03-25T10:18:56;7.20;;;1.13;;
38312;SDS011;24114;52.260;6.714;2024-03-25T10:21:22;4.75;;;0.90;;
38312;SDS011;24114;52.260;6.714;2024-03-25T10:23:48;7.32;;;1.30;;
38312;SDS011;24114;52.260;6.714;2024-03-25T10:26:26;6.65;;;1.20;;
38312;SDS011;24114;52.260;6.714;2024-03-25T10:29:02;5.72;;;0.77;;
38312;SDS011;24114;52.260;6.714;2024-03-25T10:31:29;4.63;;;1.02;;
38312;SDS011;24114;52.260;6.714;2024-03-25T10:33:55;5.40;;;1.50;;
38312;SDS011;24114;52.260;6.714;2024-03-25T10:36:21;7.30;;;1.05;;
38312;SDS011;24114;52.260;6.714;2024-03-25T10:38:48;4.35;;;0.90;;
38312;SDS011;24114;52.260;6.714;2024-03-25T10:41:16;6.93;;;0.90;;
38312;SDS011;24114;52.260;6.714;2024-03-25T10:43:45;6.03;;;0.80;;
38312;SDS011;24114;52.260;6.714;2024-03-25T10:46:11;3.00;;;0.50;;
38312;SDS011;24114;52.260;6.714;2024-03-25T10:48:41;5.05;;;0.60;;
38312;SDS011;24114;52.260;6.714;2024-03-25T10:51:11;5.10;;;0.70;;
38312;SDS011;24114;52.260;6.714;2024-03-25T10:53:37;4.28;;;0.57;;
38312;SDS011;24114;52.260;6.714;2024-03-25T10:56:03;4.25;;;0.50;;
38312;SDS011;24114;52.260;6.714;2024-03-25T10:58:31;5.35;;;0.57;;
38312;SDS011;24114;52.260;6.714;2024-03-25T11:00:59;2.70;;;0.40;;
38312;SDS011;24114;52.260;6.714;2024-03-25T11:03:26;3.90;;;0.65;;
38312;SDS011;24114;52.260;6.714;2024-03-25T11:05:52;5.85;;;0.50;;
38312;SDS011;24114;52.260;6.714;2024-03-25T11:08:18;7.38;;;1.08;;
38312;SDS011;24114;52.260;6.714;2024-03-25T11:10:44;4.18;;;0.80;;
38312;SDS011;24114;52.260;6.714;2024-03-25T11:13:11;5.20;;;0.73;;
38312;SDS011;24114;52.260;6.714;2024-03-25T11:15:37;4.30;;;0.50;;
38312;SDS011;24114;52.260;6.714;2024-03-25T11:18:10;6.90;;;0.77;;
38312;SDS011;24114;52.260;6.714;2024-03-25T11:20:36;4.45;;;0.82;;
38312;SDS011;24114;52.260;6.714;2024-03-25T11:23:07;4.43;;;0.80;;
38312;SDS011;24114;52.260;6.714;2024-03-25T11:25:34;4.00;;;0.60;;
38312;SDS011;24114;52.260;6.714;2024-03-25T11:28:00;5.50;;;1.02;;
38312;SDS011;24114;52.260;6.714;2024-03-25T11:30:26;5.90;;;1.02;;
38312;SDS011;24114;52.260;6.714;2024-03-25T11:32:52;3.58;;;0.70;;
38312;SDS011;24114;52.260;6.714;2024-03-25T11:35:20;7.57;;;1.40;;
38312;SDS011;24114;52.260;6.714;2024-03-25T11:37:46;4.05;;;0.93;;
38312;SDS011;24114;52.260;6.714;2024-03-25T11:40:13;5.53;;;0.75;;
38312;SDS011;24114;52.260;6.714;2024-03-25T11:42:39;6.35;;;0.90;;
38312;SDS011;24114;52.260;6.714;2024-03-25T11:45:06;3.38;;;0.50;;
38312;SDS011;24114;52.260;6.714;2024-03-25T11:47:33;4.72;;;0.80;;
38312;SDS011;24114;52.260;6.714;2024-03-25T11:49:59;5.50;;;1.08;;
38312;SDS011;24114;52.260;6.714;2024-03-25T11:52:31;3.88;;;0.50;;
38312;SDS011;24114;52.260;6.714;2024-03-25T11:54:57;3.90;;;0.80;;
38312;SDS011;24114;52.260;6.714;2024-03-25T11:57:23;6.53;;;0.90;;
38312;SDS011;24114;52.260;6.714;2024-03-25T11:59:48;4.35;;;0.80;;
38312;SDS011;24114;52.260;6.714;2024-03-25T12:02:15;6.82;;;0.80;;
38312;SDS011;24114;52.260;6.714;2024-03-25T12:04:42;7.50;;;1.42;;
38312;SDS011;24114;52.260;6.714;2024-03-25T12:07:10;6.15;;;1.02;;
38312;SDS011;24114;52.260;6.714;2024-03-25T12:09:38;5.30;;;1.10;;
38312;SDS011;24114;52.260;6.714;2024-03-25T12:12:34;4.10;;;0.50;;
38312;SDS011;24114;52.260;6.714;2024-03-25T12:15:00;5.10;;;0.70;;
38312;SDS011;24114;52.260;6.714;2024-03-25T12:17:26;3.17;;;0.47;;
38312;SDS011;24114;52.260;6.714;2024-03-25T12:20:02;3.03;;;0.47;;
38312;SDS011;24114;52.260;6.714;2024-03-25T12:22:29;4.15;;;0.70;;
38312;SDS011;24114;52.260;6.714;2024-03-25T12:24:58;4.30;;;0.80;;
38312;SDS011;24114;52.260;6.714;2024-03-25T12:27:25;2.85;;;0.40;;
38312;SDS011;24114;52.260;6.714;2024-03-25T12:30:00;3.50;;;0.57;;
38312;SDS011;24114;52.260;6.714;2024-03-25T12:33:08;3.63;;;0.85;;
38312;SDS011;24114;52.260;6.714;2024-03-25T12:35:34;4.22;;;0.90;;
38312;SDS011;24114;52.260;6.714;2024-03-25T12:38:00;7.47;;;1.90;;
38312;SDS011;24114;52.260;6.714;2024-03-25T12:41:48;8.27;;;4.20;;
38312;SDS011;24114;52.260;6.714;2024-03-25T12:44:14;7.43;;;4.03;;
38312;SDS011;24114;52.260;6.714;2024-03-25T12:46:40;8.07;;;3.00;;
38312;SDS011;24114;52.260;6.714;2024-03-25T12:49:06;5.40;;;1.77;;
38312;SDS011;24114;52.260;6.714;2024-03-25T12:51:32;6.75;;;1.80;;
38312;SDS011;24114;52.260;6.714;2024-03-25T12:53:58;6.53;;;2.83;;
38312;SDS011;24114;52.260;6.714;2024-03-25T14:01:58;2.83;;;0.30;;
38312;SDS011;24114;52.260;6.714;2024-03-25T14:04:24;3.83;;;0.60;;
38312;SDS011;24114;52.260;6.714;2024-03-25T14:06:50;2.95;;;0.60;;
38312;SDS011;24114;52.260;6.714;2024-03-25T14:09:22;4.03;;;0.70;;
38312;SDS011;24114;52.260;6.714;2024-03-25T14:11:49;3.15;;;0.30;;
38312;SDS011;24114;52.260;6.714;2024-03-25T14:14:15;3.00;;;0.22;;
38312;SDS011;24114;52.260;6.714;2024-03-25T14:16:41;2.33;;;0.80;;
38312;SDS011;24114;52.260;6.714;2024-03-25T14:19:08;4.93;;;0.80;;
38312;SDS011;24114;52.260;6.714;2024-03-25T14:22:23;3.47;;;0.43;;
38312;SDS011;24114;52.260;6.714;2024-03-25T14:24:49;5.82;;;0.90;;
38312;SDS011;24114;52.260;6.714;2024-03-25T14:27:15;10.97;;;4.20;;
38312;SDS011;24114;52.260;6.714;2024-03-25T14:29:40;3.92;;;0.43;;
38312;SDS011;24114;52.260;6.714;2024-03-25T14:32:07;4.80;;;0.60;;
38312;SDS011;24114;52.260;6.714;2024-03-25T14:34:33;3.45;;;0.30;;
38312;SDS011;24114;52.260;6.714;2024-03-25T14:36:59;2.60;;;0.40;;
38312;SDS011;24114;52.260;6.714;2024-03-25T14:39:27;3.63;;;0.38;;
38312;SDS011;24114;52.260;6.714;2024-03-25T14:41:53;3.30;;;0.75;;
38312;SDS011;24114;52.260;6.714;2024-03-25T14:44:19;4.50;;;0.90;;
38312;SDS011;24114;52.260;6.714;2024-03-25T14:46:45;2.90;;;0.38;;
38312;SDS011;24114;52.260;6.714;2024-03-25T14:49:11;7.13;;;1.50;;
38312;SDS011;24114;52.260;6.714;2024-03-25T14:51:37;2.90;;;0.40;;
38312;SDS011;24114;52.260;6.714;2024-03-25T14:54:03;2.70;;;0.50;;
38312;SDS011;24114;52.260;6.714;2024-03-25T14:56:30;4.80;;;1.48;;
38312;SDS011;24114;52.260;6.714;2024-03-25T14:58:57;5.05;;;0.80;;
38312;SDS011;24114;52.260;6.714;2024-03-25T15:01:23;3.35;;;0.57;;
38312;SDS011;24114;52.260;6.714;2024-03-25T15:03:49;3.50;;;0.33;;
38312;SDS011;24114;52.260;6.714;2024-03-25T15:06:15;3.50;;;0.35;;
38312;SDS011;24114;52.260;6.714;2024-03-25T15:08:41;3.85;;;0.40;;
38312;SDS011;24114;52.260;6.714;2024-03-25T15:11:07;2.78;;;0.40;;
38312;SDS011;24114;52.260;6.714;2024-03-25T15:13:34;3.38;;;0.30;;
38312;SDS011;24114;52.260;6.714;2024-03-25T15:16:02;4.68;;;0.40;;
38312;SDS011;24114;52.260;6.714;2024-03-25T15:18:29;2.75;;;0.30;;
38312;SDS011;24114;52.260;6.714;2024-03-25T15:21:02;3.33;;;0.38;;
38312;SDS011;24114;52.260;6.714;2024-03-25T15:23:28;3.55;;;0.38;;
38312;SDS011;24114;52.260;6.714;2024-03-25T15:25:55;2.67;;;0.30;;
38312;SDS011;24114;52.260;6.714;2024-03-25T15:28:20;1.75;;;0.20;;
38312;SDS011;24114;52.260;6.714;2024-03-25T15:30:48;2.50;;;0.30;;
38312;SDS011;24114;52.260;6.714;2024-03-25T15:33:14;2.58;;;0.45;;
38312;SDS011;24114;52.260;6.714;2024-03-25T15:35:40;3.08;;;0.50;;
38312;SDS011;24114;52.260;6.714;2024-03-25T15:38:06;2.85;;;0.30;;
38312;SDS011;24114;52.260;6.714;2024-03-25T15:40:31;3.22;;;0.20;;
38312;SDS011;24114;52.260;6.714;2024-03-25T15:42:57;3.30;;;0.60;;
38312;SDS011;24114;52.260;6.714;2024-03-25T15:45:24;2.28;;;0.20;;